JBU1036 TJSJ-TIST
Flight info
| Callsign | JBU1036 |
|---|---|
| Flight time | 0h 16m |
| Altitude | 9000 |
| Route | SJU RTE2 STT |
| Aircraft | A320/M-SDE3FGHIRWY/LB1 |
Departure
| Time | 2026-05-06 01:29 |
|---|---|
| Airport | Luis Munoz Marin International Airport (TJSJ) |
Arrival
| Time | 2026-05-06 01:45 |
|---|---|
| Airport | Cyril E. King Airport (TIST) |
| Time | Latitude | Longitude | Altitude | Speed | Heading |
|---|---|---|---|---|---|
| 2026-05-06 01:02 | 18.43555 | -66.00649 | 17 ft | 0 kts | 0° |
| 2026-05-06 01:13 | 18.43554 | -66.00649 | 17 ft | 0 kts | 0° |
| 2026-05-06 01:19 | 18.43552 | -66.00649 | 17 ft | 3 kts | 0° |
| 2026-05-06 01:19 | 18.43525 | -66.00649 | 19 ft | 4 kts | 0° |
| 2026-05-06 01:19 | 18.43502 | -66.00650 | 17 ft | 4 kts | 354° |
| 2026-05-06 01:20 | 18.43479 | -66.00641 | 17 ft | 4 kts | 311° |
| 2026-05-06 01:20 | 18.43467 | -66.00618 | 17 ft | 4 kts | 279° |
| 2026-05-06 01:20 | 18.43465 | -66.00595 | 17 ft | 0 kts | 270° |
| 2026-05-06 01:24 | 18.43465 | -66.00610 | 17 ft | 3 kts | 270° |
| 2026-05-06 01:24 | 18.43465 | -66.00645 | 17 ft | 6 kts | 270° |
| 2026-05-06 01:24 | 18.43466 | -66.00698 | 17 ft | 9 kts | 270° |
| 2026-05-06 01:24 | 18.43466 | -66.00773 | 17 ft | 12 kts | 270° |
| 2026-05-06 01:25 | 18.43466 | -66.00868 | 17 ft | 14 kts | 270° |
| 2026-05-06 01:25 | 18.43466 | -66.00984 | 17 ft | 17 kts | 270° |
| 2026-05-06 01:25 | 18.43466 | -66.01118 | 17 ft | 19 kts | 270° |
| 2026-05-06 01:25 | 18.43466 | -66.01261 | 17 ft | 21 kts | 270° |
| 2026-05-06 01:26 | 18.43467 | -66.01380 | 17 ft | 13 kts | 270° |
| 2026-05-06 01:26 | 18.43525 | -66.01438 | 17 ft | 14 kts | 358° |
| 2026-05-06 01:26 | 18.43633 | -66.01436 | 17 ft | 17 kts | 1° |
| 2026-05-06 01:26 | 18.43743 | -66.01443 | 17 ft | 14 kts | 336° |
| 2026-05-06 01:27 | 18.43757 | -66.01516 | 17 ft | 0 kts | 277° |
| 2026-05-06 01:27 | 18.43758 | -66.01521 | 17 ft | 2 kts | 281° |
| 2026-05-06 01:27 | 18.43771 | -66.01538 | 18 ft | 4 kts | 316° |
| 2026-05-06 01:28 | 18.43802 | -66.01562 | 18 ft | 7 kts | 332° |
| 2026-05-06 01:28 | 18.43850 | -66.01550 | 17 ft | 9 kts | 45° |
| 2026-05-06 01:28 | 18.43861 | -66.01526 | 17 ft | 0 kts | 69° |
| 2026-05-06 01:28 | 18.43944 | -66.01318 | 17 ft | 69 kts | 66° |
| 2026-05-06 01:29 | 18.44222 | -66.00634 | 18 ft | 131 kts | 67° |
| 2026-05-06 01:29 | 18.44629 | -65.99624 | 219 ft | 159 kts | 68° |
| 2026-05-06 01:29 | 18.45072 | -65.98565 | 923 ft | 159 kts | 70° |
| 2026-05-06 01:29 | 18.45527 | -65.97461 | 1380 ft | 174 kts | 69° |
| 2026-05-06 01:30 | 18.45982 | -65.96189 | 1676 ft | 198 kts | 81° |
| 2026-05-06 01:30 | 18.46112 | -65.94658 | 2047 ft | 222 kts | 91° |
| 2026-05-06 01:30 | 18.46091 | -65.92941 | 2551 ft | 245 kts | 93° |
| 2026-05-06 01:30 | 18.46033 | -65.91104 | 3367 ft | 254 kts | 92° |
| 2026-05-06 01:31 | 18.45983 | -65.89235 | 4324 ft | 257 kts | 92° |
| 2026-05-06 01:31 | 18.45947 | -65.87338 | 5232 ft | 262 kts | 92° |
| 2026-05-06 01:31 | 18.45923 | -65.85426 | 6076 ft | 267 kts | 91° |
| 2026-05-06 01:31 | 18.45908 | -65.83443 | 6862 ft | 274 kts | 92° |
| 2026-05-06 01:32 | 18.45900 | -65.81425 | 7650 ft | 278 kts | 91° |
| 2026-05-06 01:32 | 18.45902 | -65.79373 | 8445 ft | 283 kts | 89° |
| 2026-05-06 01:32 | 18.45979 | -65.77280 | 8856 ft | 287 kts | 88° |
| 2026-05-06 01:32 | 18.46119 | -65.75188 | 8975 ft | 286 kts | 86° |
| 2026-05-06 01:33 | 18.46281 | -65.73100 | 9003 ft | 286 kts | 86° |
| 2026-05-06 01:33 | 18.46439 | -65.71037 | 9001 ft | 286 kts | 86° |
| 2026-05-06 01:33 | 18.46592 | -65.68948 | 9001 ft | 285 kts | 86° |
| 2026-05-06 01:33 | 18.46737 | -65.66865 | 9003 ft | 286 kts | 87° |
| 2026-05-06 01:34 | 18.46878 | -65.64773 | 9000 ft | 286 kts | 87° |
| 2026-05-06 01:34 | 18.47017 | -65.62681 | 8997 ft | 286 kts | 87° |
| 2026-05-06 01:34 | 18.47152 | -65.60598 | 8998 ft | 286 kts | 87° |
| 2026-05-06 01:34 | 18.47287 | -65.58509 | 9002 ft | 287 kts | 86° |
| 2026-05-06 01:35 | 18.47421 | -65.56414 | 9003 ft | 286 kts | 86° |
| 2026-05-06 01:35 | 18.47553 | -65.54322 | 9006 ft | 286 kts | 86° |
| 2026-05-06 01:35 | 18.47685 | -65.52259 | 9008 ft | 286 kts | 86° |
| 2026-05-06 01:35 | 18.47822 | -65.50165 | 9010 ft | 287 kts | 87° |
| 2026-05-06 01:36 | 18.47957 | -65.48070 | 9010 ft | 287 kts | 87° |
| 2026-05-06 01:36 | 18.48089 | -65.45978 | 9012 ft | 287 kts | 86° |
| 2026-05-06 01:36 | 18.48219 | -65.43884 | 9014 ft | 287 kts | 87° |
| 2026-05-06 01:36 | 18.48352 | -65.41786 | 8911 ft | 285 kts | 87° |
| 2026-05-06 01:37 | 18.48486 | -65.39698 | 8451 ft | 287 kts | 87° |
| 2026-05-06 01:37 | 18.48618 | -65.37601 | 8047 ft | 288 kts | 87° |
| 2026-05-06 01:37 | 18.48749 | -65.35526 | 7787 ft | 280 kts | 87° |
| 2026-05-06 01:37 | 18.48878 | -65.33518 | 7194 ft | 277 kts | 87° |
| 2026-05-06 01:38 | 18.49009 | -65.31513 | 6706 ft | 271 kts | 88° |
| 2026-05-06 01:38 | 18.48870 | -65.29575 | 6253 ft | 262 kts | 105° |
| 2026-05-06 01:38 | 18.48124 | -65.27830 | 5830 ft | 265 kts | 124° |
| 2026-05-06 01:38 | 18.46860 | -65.26456 | 5580 ft | 259 kts | 142° |
| 2026-05-06 01:39 | 18.45311 | -65.25461 | 5035 ft | 262 kts | 148° |
| 2026-05-06 01:39 | 18.43725 | -65.24514 | 4545 ft | 262 kts | 148° |
| 2026-05-06 01:39 | 18.42165 | -65.23589 | 4438 ft | 252 kts | 149° |
| 2026-05-06 01:39 | 18.40670 | -65.22707 | 4350 ft | 241 kts | 148° |
| 2026-05-06 01:40 | 18.39262 | -65.21873 | 4246 ft | 231 kts | 148° |
| 2026-05-06 01:40 | 18.37871 | -65.21044 | 4143 ft | 229 kts | 148° |
| 2026-05-06 01:40 | 18.36488 | -65.20216 | 4042 ft | 228 kts | 148° |
| 2026-05-06 01:40 | 18.35114 | -65.19389 | 3939 ft | 226 kts | 148° |
| 2026-05-06 01:41 | 18.33810 | -65.18536 | 3838 ft | 214 kts | 136° |
| 2026-05-06 01:41 | 18.33023 | -65.17291 | 3713 ft | 204 kts | 107° |
| 2026-05-06 01:41 | 18.32920 | -65.15809 | 3408 ft | 204 kts | 88° |
| 2026-05-06 01:41 | 18.32993 | -65.14305 | 2996 ft | 208 kts | 88° |
| 2026-05-06 01:42 | 18.33062 | -65.12796 | 2663 ft | 209 kts | 88° |
| 2026-05-06 01:42 | 18.33129 | -65.11279 | 2376 ft | 206 kts | 88° |
| 2026-05-06 01:42 | 18.33194 | -65.09792 | 2103 ft | 202 kts | 89° |
| 2026-05-06 01:42 | 18.33257 | -65.08328 | 1845 ft | 198 kts | 89° |
| 2026-05-06 01:43 | 18.33318 | -65.06922 | 1596 ft | 188 kts | 89° |
| 2026-05-06 01:43 | 18.33375 | -65.05606 | 1374 ft | 173 kts | 89° |
| 2026-05-06 01:43 | 18.33427 | -65.04396 | 1143 ft | 159 kts | 89° |
| 2026-05-06 01:43 | 18.33477 | -65.03272 | 933 ft | 149 kts | 88° |
| 2026-05-06 01:44 | 18.33532 | -65.02213 | 749 ft | 143 kts | 89° |
| 2026-05-06 01:44 | 18.33591 | -65.01185 | 627 ft | 140 kts | 86° |
| 2026-05-06 01:44 | 18.33622 | -65.00152 | 431 ft | 142 kts | 89° |
| 2026-05-06 01:44 | 18.33663 | -64.99121 | 245 ft | 141 kts | 91° |
| 2026-05-06 01:45 | 18.33703 | -64.98085 | 71 ft | 140 kts | 90° |
| 2026-05-06 01:45 | 18.33741 | -64.97107 | 38 ft | 113 kts | 86° |
| 2026-05-06 01:45 | 18.33761 | -64.96690 | 31 ft | 28 kts | 85° |
| 2026-05-06 01:45 | 18.33764 | -64.96487 | 31 ft | 28 kts | 87° |
| 2026-05-06 01:46 | 18.33755 | -64.96355 | 30 ft | 13 kts | 132° |
| 2026-05-06 01:46 | 18.33688 | -64.96371 | 32 ft | 12 kts | 253° |
| 2026-05-06 01:46 | 18.33688 | -64.96466 | 32 ft | 14 kts | 269° |
| 2026-05-06 01:46 | 18.33680 | -64.96570 | 32 ft | 13 kts | 265° |
| 2026-05-06 01:47 | 18.33676 | -64.96669 | 32 ft | 11 kts | 268° |
| 2026-05-06 01:47 | 18.33673 | -64.96748 | 32 ft | 11 kts | 267° |
| 2026-05-06 01:47 | 18.33670 | -64.96831 | 31 ft | 12 kts | 267° |
| 2026-05-06 01:47 | 18.33664 | -64.96919 | 32 ft | 12 kts | 267° |
| 2026-05-06 01:48 | 18.33660 | -64.97009 | 32 ft | 12 kts | 268° |
| 2026-05-06 01:48 | 18.33657 | -64.97103 | 32 ft | 13 kts | 267° |
| 2026-05-06 01:48 | 18.33651 | -64.97201 | 32 ft | 14 kts | 266° |
| 2026-05-06 01:48 | 18.33632 | -64.97257 | 32 ft | 4 kts | 176° |
| 2026-05-06 01:49 | 18.33602 | -64.97256 | 32 ft | 3 kts | 181° |
| 2026-05-06 01:49 | 18.33580 | -64.97255 | 32 ft | 2 kts | 178° |
| 2026-05-06 01:49 | 18.33574 | -64.97255 | 32 ft | 0 kts | 178° |